Aérodrome :
LOGIN :

S'inscrire | Disclaimer

   EN    FR    IT 

 










Légende :    VFR   VFR Marginal   IFR   IFR Intensif   IFR Très Intensif
Visi : 
Plafond : 
>= 8 km
>= 3000ft
5 à 8 km
1000 à 3000 ft
1500m à 5 km
500 à 1000 ft
800 à 1500m
200 à 500 ft
< 800m
< 200 ft
Symboles :   Orages  Brouillard  Fortes neiges  Fortes précipitations  Vent > 20 kt
SIGMETs :   Divers  Orages  Givrage  Turbulence  Onde Orograph.  Cendres Volcan.






- Altitude de l'aérodrome : 29 ft


LIRM - Grazzanise Caserta

DERNIER METAR :
  • 200855Z 05013KT 9999 SCT040 08/M04 Q1032

METARs EXPIRÉS :
  • 200755Z 03010KT 9999 SCT040 07/M01 Q1032 RMK BKN BKN100 VIS MIN 9999 WIND THR06 03011KT BLU
  • 200655Z 05012KT 9999 SCT040 06/M03 Q1031
  • 200555Z 05011KT CAVOK 08/M03 Q1031 RMK BKN BKN180 VIS MIN 9999 WIND THR06 03013KT BLU

TAF TAF LIRM
Valide du 20 à 09h jusqu'au 20 à 18h UTC


200800Z 2009/2018 05012KT 9999 FEW040
TEMPO 2012/2015 06015G25KT



MET'MAP, la Météo Aéronautique d'un coup d'oeil ! - Copyright ORBIFLY Décembre 2007 - Disclaimer

ORBIFLY MET'MAP TEAM :

Programmation & Développement : Alexandra Zaïnal
Sur une idée originale de : Baudouin d'Aumeries
Assistance à la programmation : Marc-Olivier Méhu
Soutien technique & logistique : Manuel Goepfert

Contact : metmap@orbifly.com




SOURCES & CREDITS :

   NOAA